Time;durP1;ratioP1;P1;durP2;ratioP2;P2;SDS_P1;SDS_P2;PMS_P1;PMS_P2;Temp;Humidity;BMP_temperature;BMP_pressure;BME280_temperature;BME280_humidity;BME280_pressure;Samples;Min_cycle;Max_cycle;Signal;HPM_P1;HPM_P2
2023/10/23 00:01:41;;;;;;;17.77;7.70;;;;;;;20.86;47.36;95202.88;6270398;27;109166;-63
2023/10/23 00:04:45;;;;;;;20.00;7.90;;;;;;;20.94;47.48;95212.84;6280265;27;109219;-64
2023/10/23 00:07:48;;;;;;;21.35;8.73;;;;;;;21.00;47.22;95206.31;6280803;27;109162;-64
2023/10/23 00:10:52;;;;;;;17.40;8.40;;;;;;;21.02;47.33;95206.06;6277081;27;109056;-63
2023/10/23 00:13:55;;;;;;;22.30;9.10;;;;;;;21.06;46.99;95204.41;6274607;27;109715;-64
2023/10/23 00:16:59;;;;;;;21.13;8.30;;;;;;;21.16;46.88;95204.19;6280107;27;109126;-68
2023/10/23 00:20:04;;;;;;;18.98;8.60;;;;;;;21.00;47.22;95206.31;6263692;27;109008;-67
2023/10/23 00:23:07;;;;;;;17.10;8.43;;;;;;;21.21;46.84;95193.47;6259080;27;109113;-68
2023/10/23 00:26:10;;;;;;;17.70;7.97;;;;;;;21.06;47.37;95197.22;6263584;27;109153;-68
2023/10/23 00:29:13;;;;;;;19.33;7.40;;;;;;;21.25;46.42;95202.44;6280786;27;109583;-67
2023/10/23 00:32:17;;;;;;;18.70;7.77;;;;;;;21.22;46.42;95189.72;6271158;27;109525;-67
2023/10/23 00:35:22;;;;;;;16.23;6.95;;;;;;;21.21;46.39;95196.94;6278020;27;108939;-67
2023/10/23 00:38:26;;;;;;;15.98;8.00;;;;;;;21.32;46.13;95205.47;6269813;27;109134;-67
2023/10/23 00:41:29;;;;;;;17.80;7.80;;;;;;;21.28;46.72;95207.16;6262964;27;109172;-68
2023/10/23 00:44:32;;;;;;;17.42;7.47;;;;;;;21.27;46.52;95197.59;6273442;27;109026;-68
2023/10/23 00:47:35;;;;;;;16.10;7.20;;;;;;;21.28;46.37;95204.50;6256664;27;109188;-67
2023/10/23 00:50:40;;;;;;;19.17;8.10;;;;;;;21.36;45.94;95206.50;6263574;27;108996;-67
2023/10/23 00:53:44;;;;;;;16.63;7.50;;;;;;;21.39;45.83;95207.78;6261863;27;109458;-67
2023/10/23 00:56:48;;;;;;;19.07;7.77;;;;;;;21.40;46.03;95204.81;6272711;27;109555;-67
2023/10/23 00:59:51;;;;;;;16.43;7.50;;;;;;;21.43;46.35;95206.09;6261333;27;109049;-67
2023/10/23 01:02:55;;;;;;;17.53;6.50;;;;;;;21.41;46.34;95206.38;6241834;27;109856;-67
2023/10/23 01:05:59;;;;;;;18.38;7.90;;;;;;;21.31;46.21;95195.94;6238690;27;110290;-67
2023/10/23 01:09:03;;;;;;;17.70;7.10;;;;;;;21.14;46.55;95195.72;6252491;27;109282;-67
2023/10/23 01:12:07;;;;;;;17.92;7.40;;;;;;;21.26;46.09;95192.59;6263277;27;108666;-67
2023/10/23 01:15:10;;;;;;;18.48;7.60;;;;;;;21.29;46.22;95198.09;6277763;27;109049;-67
2023/10/23 01:18:13;;;;;;;14.45;7.13;;;;;;;21.31;45.94;95195.94;6263402;27;109213;-67
2023/10/23 01:21:18;;;;;;;17.27;7.30;;;;;;;21.21;46.39;95201.47;6259203;27;109131;-67
2023/10/23 01:24:24;;;;;;;15.23;6.73;;;;;;;21.33;46.19;95193.75;6262423;27;109130;-68
2023/10/23 01:27:29;;;;;;;14.15;7.20;;;;;;;21.29;46.47;95192.00;6262702;27;109048;-70
2023/10/23 01:30:32;;;;;;;15.57;7.40;;;;;;;21.08;46.49;95196.91;6254482;27;109709;-67
2023/10/23 01:33:37;;;;;;;18.55;7.10;;;;;;;21.25;46.44;95197.13;6250740;27;109272;-70
2023/10/23 01:36:40;;;;;;;17.48;7.00;;;;;;;21.31;45.96;95192.47;6251818;27;109470;-70
2023/10/23 01:39:44;;;;;;;13.27;6.93;;;;;;;21.21;46.54;95198.81;6262135;27;109079;-70
2023/10/23 01:42:49;;;;;;;18.20;7.45;;;;;;;21.15;46.67;95184.00;6249753;27;109146;-70
2023/10/23 01:45:52;;;;;;;18.90;7.50;;;;;;;20.93;47.03;95189.97;6262087;27;110107;-69
2023/10/23 01:48:55;;;;;;;18.38;7.30;;;;;;;;;;6262213;27;109377;-70
2023/10/23 01:51:58;;;;;;;13.43;6.78;;;;;;;21.05;46.99;95192.19;6265423;27;110423;-71
2023/10/23 01:55:02;;;;;;;16.65;8.20;;;;;;;21.05;47.01;95192.19;6255941;27;109529;-69
2023/10/23 01:58:06;;;;;;;15.57;6.90;;;;;;;21.00;47.04;95187.69;6246562;27;112097;-70
2023/10/23 02:01:19;;;;;;;17.98;7.30;;;;;;;21.25;46.77;95191.78;6251459;27;109196;-70
2023/10/23 02:04:23;;;;;;;17.00;7.40;;;;;;;21.27;46.58;95199.47;6255335;27;109524;-69
2023/10/23 02:07:27;;;;;;;15.55;7.22;;;;;;;21.39;46.59;95205.09;6253918;27;109055;-70
2023/10/23 02:10:30;;;;;;;18.55;7.72;;;;;;;21.39;46.51;95210.44;6262246;27;112007;-70
2023/10/23 02:13:35;;;;;;;17.85;8.20;;;;;;;21.24;47.15;95211.50;6261097;27;109072;-70
2023/10/23 02:16:38;;;;;;;20.88;8.20;;;;;;;21.16;46.91;95205.00;6245355;27;109078;-69
2023/10/23 02:19:41;;;;;;;16.20;7.80;;;;;;;21.32;46.17;95202.81;6236845;27;108898;-70
2023/10/23 02:22:44;;;;;;;15.17;8.07;;;;;;;21.17;46.87;95208.44;6244958;27;109382;-70
2023/10/23 02:25:47;;;;;;;15.45;7.70;;;;;;;21.06;47.27;95204.41;6278410;27;109254;-70
2023/10/23 02:28:52;;;;;;;18.55;7.40;;;;;;;21.20;46.70;95206.00;6253978;27;109157;-70
2023/10/23 02:31:55;;;;;;;15.70;7.70;;;;;;;21.20;46.99;95207.88;6245511;27;109303;-70
2023/10/23 02:34:58;;;;;;;16.38;7.40;;;;;;;20.99;47.43;95210.06;6275464;27;109241;-68
2023/10/23 02:38:02;;;;;;;16.88;7.60;;;;;;;21.02;47.28;95208.72;6244975;27;108986;-67
2023/10/23 02:41:05;;;;;;;15.52;7.35;;;;;;;21.00;47.35;95210.84;6253656;27;112563;-68
2023/10/23 02:44:10;;;;;;;15.25;7.50;;;;;;;20.92;47.25;95215.00;6261206;27;109201;-67
2023/10/23 02:47:13;;;;;;;20.52;8.98;;;;;;;20.78;47.54;95204.34;6245494;27;110669;-67
2023/10/23 02:50:17;;;;;;;18.23;8.30;;;;;;;20.58;48.11;95196.72;6249528;27;109201;-67
2023/10/23 02:53:20;;;;;;;16.43;7.30;;;;;;;20.73;47.89;95204.44;6261030;27;109009;-67
2023/10/23 02:56:24;;;;;;;19.83;7.97;;;;;;;20.91;47.08;95203.56;6260423;27;109430;-67
2023/10/23 02:59:28;;;;;;;20.00;9.07;;;;;;;20.79;47.51;95210.44;6262663;27;109841;-68
2023/10/23 03:02:33;;;;;;;25.52;20.73;;;;;;;20.74;47.72;95203.34;6234037;27;109024;-67
2023/10/23 03:05:36;;;;;;;24.80;14.00;;;;;;;20.61;47.97;95206.75;6236098;27;108996;-67
2023/10/23 03:08:39;;;;;;;20.45;13.15;;;;;;;20.82;47.44;95202.66;6245256;27;109059;-67
2023/10/23 03:11:43;;;;;;;23.73;16.83;;;;;;;20.87;47.52;95218.56;6265375;27;108990;-67
2023/10/23 03:14:47;;;;;;;22.42;11.57;;;;;;;20.71;47.80;95203.94;6248469;27;108845;-67
2023/10/23 03:17:50;;;;;;;17.35;9.50;;;;;;;20.61;47.82;95201.44;6257531;27;108984;-67
2023/10/23 03:20:53;;;;;;;18.10;8.30;;;;;;;20.69;47.63;95206.09;6235760;27;109292;-67
2023/10/23 03:23:56;;;;;;;19.52;8.15;;;;;;;20.60;47.77;95199.88;6239568;27;109002;-67
2023/10/23 03:27:00;;;;;;;20.95;13.05;;;;;;;20.58;48.17;95200.16;6250850;27;108983;-68
2023/10/23 03:30:05;;;;;;;21.85;12.50;;;;;;;20.60;47.63;95197.22;6259822;27;109132;-68
2023/10/23 03:33:08;;;;;;;21.20;9.77;;;;;;;20.68;47.87;95204.53;6260285;27;110292;-68
2023/10/23 03:36:11;;;;;;;18.97;11.27;;;;;;;20.97;47.10;95206.13;6247466;27;109363;-68
2023/10/23 03:39:14;;;;;;;19.30;10.07;;;;;;;20.92;47.12;95199.03;6250649;27;109552;-69
2023/10/23 03:42:17;;;;;;;18.52;8.77;;;;;;;21.06;46.69;95199.09;6257383;27;109587;-68
2023/10/23 03:45:22;;;;;;;17.23;7.90;;;;;;;21.18;46.95;95202.84;6265163;27;109052;-68
2023/10/23 03:48:25;;;;;;;15.68;7.75;;;;;;;21.12;47.30;95203.22;6252223;27;109299;-69
2023/10/23 03:51:28;;;;;;;16.05;7.57;;;;;;;21.16;47.09;95204.19;6259279;27;108910;-69
2023/10/23 03:54:31;;;;;;;14.55;7.75;;;;;;;21.17;47.45;95206.59;6255659;27;109213;-68
2023/10/23 03:57:35;;;;;;;19.30;8.00;;;;;;;21.16;47.27;95210.31;6261947;27;108960;-67
2023/10/23 04:00:39;;;;;;;15.52;7.95;;;;;;;21.20;47.04;95211.31;6258744;27;109122;-66
2023/10/23 04:03:43;;;;;;;17.63;8.13;;;;;;;21.23;46.88;95212.59;6264295;27;109110;-67
2023/10/23 04:06:46;;;;;;;15.63;8.10;;;;;;;21.28;47.16;95203.72;6285269;27;109088;-67
2023/10/23 04:09:49;;;;;;;19.52;7.85;;;;;;;21.29;47.49;95208.75;6253638;27;108976;-67
2023/10/23 04:12:52;;;;;;;14.32;7.50;;;;;;;21.42;46.80;95213.28;6254539;27;109052;-66
2023/10/23 04:15:58;;;;;;;15.10;7.10;;;;;;;21.24;46.64;95203.53;6263279;27;109541;-68
2023/10/23 04:19:02;;;;;;;20.60;8.13;;;;;;;21.13;47.81;95208.25;6263891;27;109077;-70
2023/10/23 04:22:05;;;;;;;15.25;7.00;;;;;;;21.15;47.50;95218.59;6253167;27;109472;-70
2023/10/23 04:25:08;;;;;;;20.10;8.05;;;;;;;21.20;46.97;95208.66;6258872;27;109194;-70
2023/10/23 04:28:11;;;;;;;18.85;8.27;;;;;;;21.16;46.85;95220.16;6263404;27;109080;-70
2023/10/23 04:31:16;;;;;;;20.17;7.90;;;;;;;21.17;47.17;95222.56;6263399;27;109321;-71
2023/10/23 04:34:19;;;;;;;17.83;8.57;;;;;;;21.21;46.54;95217.44;6253053;27;109846;-71
2023/10/23 04:37:23;;;;;;;19.42;7.85;;;;;;;21.06;47.16;95218.50;6263079;27;109184;-70
2023/10/23 04:40:26;;;;;;;16.17;7.68;;;;;;;20.81;47.33;95227.69;6263242;27;109391;-71
2023/10/23 04:43:29;;;;;;;18.33;7.88;;;;;;;20.91;47.30;95232.03;6257552;27;109088;-70
2023/10/23 04:46:34;;;;;;;16.43;7.97;;;;;;;21.10;46.83;95226.69;6258305;27;109676;-71
2023/10/23 04:49:37;;;;;;;18.25;7.55;;;;;;;21.09;47.16;95230.44;6262805;27;108781;-71
2023/10/23 04:52:40;;;;;;;15.13;8.13;;;;;;;21.11;46.89;95234.38;6263040;27;109440;-69
2023/10/23 04:55:43;;;;;;;14.80;7.60;;;;;;;21.09;46.58;95225.91;6252360;27;109036;-70
2023/10/23 04:58:46;;;;;;;15.80;7.97;;;;;;;20.99;46.74;95242.00;6262816;27;109046;-70
2023/10/23 05:01:51;;;;;;;18.60;8.50;;;;;;;21.08;46.81;95234.16;6262595;27;109197;-68
2023/10/23 05:04:54;;;;;;;18.58;8.15;;;;;;;21.08;46.98;95234.16;6262855;27;108917;-70
2023/10/23 05:07:58;;;;;;;17.10;7.70;;;;;;;21.06;46.66;95237.13;6251530;27;109246;-64
2023/10/23 05:11:07;;;;;;;19.00;8.80;;;;;;;21.11;46.78;95238.91;6262295;27;109485;-63
2023/10/23 05:14:10;;;;;;;17.98;9.02;;;;;;;20.87;47.41;95245.16;6262271;27;109238;-65
2023/10/23 05:17:15;;;;;;;19.48;9.32;;;;;;;20.83;47.59;95249.44;6257810;27;109359;-63
2023/10/23 05:20:19;;;;;;;23.35;9.98;;;;;;;20.67;48.14;95245.50;6255935;27;109239;-64
2023/10/23 05:23:22;;;;;;;20.00;9.50;;;;;;;20.49;48.55;95248.94;6261947;27;109217;-64
2023/10/23 05:26:25;;;;;;;21.40;9.50;;;;;;;20.54;48.44;95259.53;6262268;27;109669;-64
2023/10/23 05:29:28;;;;;;;21.58;9.10;;;;;;;20.45;48.71;95264.69;6251759;27;109131;-64
2023/10/23 05:32:33;;;;;;;19.13;9.40;;;;;;;20.52;48.58;95259.81;6262072;27;108991;-64
2023/10/23 05:35:36;;;;;;;18.30;9.43;;;;;;;20.71;48.01;95278.41;6262103;27;109019;-64
2023/10/23 05:38:40;;;;;;;18.20;9.10;;;;;;;20.68;47.98;95271.00;6261473;27;109787;-64
2023/10/23 05:41:43;;;;;;;20.90;10.35;;;;;;;20.79;47.58;95268.94;6251878;27;109048;-64
2023/10/23 05:44:46;;;;;;;19.15;9.27;;;;;;;20.75;47.96;95273.28;6261701;27;109350;-65
2023/10/23 05:47:50;;;;;;;21.42;9.40;;;;;;;20.70;47.73;95276.03;6261898;27;109577;-64
2023/10/23 05:51:00;;;;;;;16.90;8.57;;;;;;;20.64;48.04;95259.34;6261515;27;109195;-63
2023/10/23 05:54:03;;;;;;;19.77;9.97;;;;;;;20.56;48.21;95255.50;6250209;27;109247;-64
2023/10/23 05:57:06;;;;;;;22.13;11.55;;;;;;;20.60;47.96;95251.16;6261637;27;108733;-63
2023/10/23 06:00:10;;;;;;;22.38;9.90;;;;;;;20.84;47.45;95271.53;6261318;27;109041;-63
2023/10/23 06:03:15;;;;;;;20.48;10.25;;;;;;;20.86;47.62;95275.50;6253742;27;112095;-64
2023/10/23 06:06:18;;;;;;;22.67;10.53;;;;;;;20.86;47.65;95282.69;6260989;27;108759;-64
2023/10/23 06:09:21;;;;;;;19.02;9.43;;;;;;;20.67;47.84;95271.28;6260731;27;109254;-64
2023/10/23 06:12:24;;;;;;;18.63;9.02;;;;;;;20.60;48.40;95269.78;6261587;27;110192;-64
2023/10/23 06:15:27;;;;;;;20.45;8.98;;;;;;;20.51;48.32;95263.56;6250423;27;109280;-64
2023/10/23 06:18:32;;;;;;;16.42;9.10;;;;;;;20.56;48.02;95266.13;6261130;27;109280;-71
2023/10/23 06:21:35;;;;;;;21.83;9.98;;;;;;;20.74;47.82;95283.13;6261200;27;109105;-72
2023/10/23 06:24:38;;;;;;;19.50;9.30;;;;;;;20.78;47.89;95273.47;6260676;27;108974;-70
2023/10/23 06:27:41;;;;;;;21.70;9.40;;;;;;;20.82;47.76;95279.78;6250072;27;109055;-70
2023/10/23 06:30:45;;;;;;;23.70;10.33;;;;;;;20.76;48.27;95278.31;6260996;27;108805;-71
2023/10/23 06:33:51;;;;;;;19.60;10.90;;;;;;;20.76;47.91;95290.81;6260628;27;109348;-70
2023/10/23 06:36:54;;;;;;;23.38;10.00;;;;;;;20.87;47.75;95302.88;6255321;27;109191;-69
2023/10/23 06:39:57;;;;;;;21.45;8.75;;;;;;;20.83;47.94;95309.84;6255979;27;108954;-71
2023/10/23 06:43:00;;;;;;;19.85;10.10;;;;;;;20.72;48.46;95293.28;6261159;27;109673;-70
2023/10/23 06:46:04;;;;;;;23.50;10.55;;;;;;;20.85;47.64;95295.19;6260477;27;108976;-70
2023/10/23 06:49:08;;;;;;;19.17;9.20;;;;;;;20.97;47.55;95301.91;6250253;27;109282;-69
2023/10/23 06:52:11;;;;;;;20.37;10.03;;;;;;;21.05;47.45;95306.59;6260540;27;109045;-70
2023/10/23 06:55:17;;;;;;;17.90;9.80;;;;;;;21.08;47.35;95309.47;6260308;27;109472;-70
2023/10/23 06:58:21;;;;;;;20.53;10.03;;;;;;;21.15;47.18;95319.72;6260645;27;109286;-70
2023/10/23 07:01:24;;;;;;;15.00;8.63;;;;;;;21.15;47.84;95330.34;6250403;27;110193;-71
2023/10/23 07:04:45;;;;;;;20.97;12.63;;;;;;;21.18;47.14;95329.78;6260375;27;109217;-71
2023/10/23 07:07:48;;;;;;;21.17;9.52;;;;;;;21.14;47.44;95324.25;6259898;27;110191;-71
2023/10/23 07:10:51;;;;;;;20.10;11.20;;;;;;;21.03;47.85;95322.03;6254918;27;109319;-71
2023/10/23 07:13:55;;;;;;;20.27;10.98;;;;;;;21.09;47.81;95326.22;6255220;27;109215;-70
2023/10/23 07:16:58;;;;;;;23.65;10.85;;;;;;;21.03;47.76;95324.69;6259931;27;109015;-71
2023/10/23 07:20:06;;;;;;;19.60;9.77;;;;;;;20.84;48.09;95319.44;6259926;27;108732;-70
2023/10/23 07:23:09;;;;;;;23.15;11.02;;;;;;;20.76;48.30;95334.16;6249554;27;110686;-70
2023/10/23 07:26:14;;;;;;;20.90;10.95;;;;;;;20.68;48.68;95324.19;6260063;27;109065;-71
2023/10/23 07:29:18;;;;;;;20.25;9.95;;;;;;;20.58;48.96;95322.47;6263230;27;110010;-70
2023/10/23 07:32:21;;;;;;;19.27;9.75;;;;;;;20.52;49.20;95322.84;6264351;27;108980;-70
2023/10/23 07:35:25;;;;;;;19.55;10.25;;;;;;;20.57;49.29;95323.53;6253255;27;109396;-70
2023/10/23 07:38:28;;;;;;;19.58;10.02;;;;;;;20.63;49.25;95321.59;6264225;27;109388;-69
2023/10/23 07:41:31;;;;;;;19.92;9.60;;;;;;;20.56;49.22;95321.97;6264150;27;109148;-69
2023/10/23 07:44:35;;;;;;;21.88;10.02;;;;;;;20.69;49.33;95312.47;6264439;27;109618;-69
2023/10/23 07:47:38;;;;;;;20.67;9.17;;;;;;;20.70;49.27;95319.38;6255074;27;109113;-70
2023/10/23 07:50:42;;;;;;;23.90;9.50;;;;;;;20.70;49.09;95313.25;6263986;27;109220;-70
2023/10/23 07:53:45;;;;;;;22.13;9.90;;;;;;;20.69;49.24;95306.38;6264054;27;109092;-70
2023/10/23 07:56:48;;;;;;;21.00;10.75;;;;;;;20.73;49.23;95313.47;6254287;27;110054;-68
2023/10/23 07:59:51;;;;;;;21.23;11.10;;;;;;;20.82;49.13;95311.72;6262464;27;109024;-69
2023/10/23 08:02:56;;;;;;;16.73;10.20;;;;;;;20.88;49.04;95313.22;6263560;27;108549;-70
2023/10/23 08:06:03;;;;;;;18.80;10.97;;;;;;;20.82;49.22;95311.72;6263471;27;109035;-70
2023/10/23 08:09:07;;;;;;;18.73;10.32;;;;;;;20.85;49.54;95313.81;6252731;27;109933;-70
2023/10/23 08:12:11;;;;;;;22.95;11.52;;;;;;;20.99;49.02;95321.03;6263262;27;109197;-69
2023/10/23 08:15:16;;;;;;;19.30;11.63;;;;;;;21.04;48.74;95316.44;6263425;27;108670;-69
2023/10/23 08:18:20;;;;;;;19.98;11.98;;;;;;;21.11;48.33;95318.72;6263338;27;109035;-71
2023/10/23 08:21:41;;;;;;;21.45;15.30;;;;;;;21.13;48.66;95322.66;6252796;27;109134;-69
2023/10/23 08:24:45;;;;;;;28.75;16.90;;;;;;;21.19;48.49;95318.06;6263351;27;110042;-69
2023/10/23 08:27:48;;;;;;;23.13;14.75;;;;;;;21.24;48.83;95317.97;6263423;27;109095;-69
2023/10/23 08:30:51;;;;;;;25.67;19.07;;;;;;;21.24;49.16;95317.97;6254309;27;108995;-68
2023/10/23 08:33:54;;;;;;;24.40;18.08;;;;;;;21.31;48.91;95313.03;6262832;27;109875;-70
2023/10/23 08:36:59;;;;;;;22.98;15.48;;;;;;;21.36;48.60;95312.97;6263123;27;109118;-68
2023/10/23 08:40:06;;;;;;;20.70;11.82;;;;;;;21.42;48.00;95313.66;6262237;27;109032;-69
2023/10/23 08:43:09;;;;;;;19.97;11.70;;;;;;;21.44;48.41;95308.81;6253730;27;111100;-69
2023/10/23 08:46:12;;;;;;;22.55;11.23;;;;;;;21.47;48.44;95310.91;6263218;27;108930;-69
2023/10/23 08:49:16;;;;;;;16.52;10.90;;;;;;;21.48;48.56;95305.28;6263042;27;110057;-69
2023/10/23 08:52:24;;;;;;;20.90;11.10;;;;;;;21.52;49.23;95303.63;6262573;27;110201;-69
2023/10/23 08:55:29;;;;;;;21.20;11.10;;;;;;;21.52;49.03;95292.97;6251308;27;108998;-69
2023/10/23 08:58:34;;;;;;;22.25;10.23;;;;;;;21.51;48.95;95296.72;6262213;27;109060;-69
2023/10/23 09:01:38;;;;;;;19.42;9.90;;;;;;;21.64;48.77;95299.66;6262183;27;109290;-69
2023/10/23 09:04:42;;;;;;;18.27;10.07;;;;;;;21.64;48.37;95294.34;6258018;27;110100;-68
2023/10/23 09:07:50;;;;;;;19.42;10.00;;;;;;;21.63;48.79;95295.41;6257361;27;109167;-68
2023/10/23 09:11:00;;;;;;;17.85;9.45;;;;;;;21.63;48.93;95293.53;6261883;27;109068;-69
2023/10/23 09:14:04;;;;;;;21.70;10.68;;;;;;;21.63;48.42;95298.09;6261970;27;109547;-67
2023/10/23 09:17:07;;;;;;;24.87;9.97;;;;;;;21.64;48.21;95294.34;6250963;27;109358;-68
2023/10/23 09:20:22;;;;;;;21.48;9.55;;;;;;;21.64;48.31;95289.78;6261629;27;109109;-69
2023/10/23 09:23:31;;;;;;;19.30;10.60;;;;;;;21.64;48.95;95289.00;6262838;27;109022;-69
2023/10/23 09:26:34;;;;;;;18.95;9.80;;;;;;;21.66;48.92;95289.50;6261923;27;110204;-69
2023/10/23 09:29:37;;;;;;;20.90;10.80;;;;;;;21.67;49.09;95289.19;6251329;27;109255;-69
2023/10/23 09:32:41;;;;;;;21.27;9.95;;;;;;;21.66;48.46;95292.94;6261500;27;109230;-68
2023/10/23 09:35:45;;;;;;;17.77;9.85;;;;;;;21.68;48.58;95284.69;6262054;27;109486;-68
2023/10/23 09:38:58;;;;;;;18.15;9.85;;;;;;;21.72;48.41;95275.00;6256138;27;109342;-69
2023/10/23 09:42:02;;;;;;;17.95;8.48;;;;;;;21.91;49.05;95278.38;6261308;27;109291;-69
2023/10/23 09:45:07;;;;;;;22.47;9.63;;;;;;;22.18;48.88;95277.53;6261445;27;109422;-69
2023/10/23 09:48:12;;;;;;;20.02;10.15;;;;;;;22.20;48.92;95275.34;6261928;27;108978;-65
2023/10/23 09:51:18;;;;;;;21.85;10.43;;;;;;;22.14;48.84;95268.53;6248808;27;109359;-64
2023/10/23 09:54:24;;;;;;;21.13;10.70;;;;;;;22.07;48.56;95276.97;6261211;27;109148;-64
2023/10/23 09:57:34;;;;;;;22.55;12.18;;;;;;;22.06;49.23;95274.59;6261025;27;109140;-64
2023/10/23 10:00:39;;;;;;;18.45;11.20;;;;;;;22.11;48.96;95263.81;6261090;27;109316;-64
2023/10/23 10:03:44;;;;;;;20.77;11.07;;;;;;;22.07;49.03;95260.97;6250018;27;109252;-64
2023/10/23 10:06:53;;;;;;;19.00;10.30;;;;;;;21.96;48.81;95256.94;6260533;27;108781;-64
2023/10/23 10:10:00;;;;;;;17.53;10.50;;;;;;;21.89;48.85;95263.78;6260509;27;108994;-64
2023/10/23 10:13:04;;;;;;;19.67;10.70;;;;;;;21.87;49.33;95249.97;6252401;27;109848;-64
2023/10/23 10:16:08;;;;;;;22.00;10.70;;;;;;;21.84;48.96;95256.66;6259311;27;109025;-64
2023/10/23 10:19:12;;;;;;;20.27;10.20;;;;;;;21.84;49.62;95239.88;6260839;27;109105;-64
2023/10/23 10:22:24;;;;;;;23.90;10.60;;;;;;;21.84;48.93;95231.88;6260262;27;109028;-64
2023/10/23 10:25:30;;;;;;;21.47;10.10;;;;;;;21.82;49.07;95229.53;6250244;27;109202;-64
2023/10/23 10:28:37;;;;;;;21.10;10.35;;;;;;;21.78;49.28;95226.66;6235328;27;109073;-64
2023/10/23 10:32:04;;;;;;;20.87;9.80;;;;;;;21.77;49.18;95225.06;6244755;27;109190;-65
2023/10/23 10:35:27;;;;;;;20.30;10.00;;;;;;;21.77;49.14;95226.94;6257093;27;110021;-64
2023/10/23 10:38:45;;;;;;;21.45;10.27;;;;;;;21.80;48.92;95223.69;6242939;27;109235;-64
2023/10/23 10:41:52;;;;;;;19.20;10.10;;;;;;;21.80;48.98;95221.03;6260629;27;110415;-67
2023/10/23 10:44:56;;;;;;;16.58;8.98;;;;;;;21.83;48.51;95223.13;6260206;27;109207;-67
2023/10/23 10:48:00;;;;;;;17.88;9.30;;;;;;;21.85;48.96;95212.19;6249396;27;109236;-64
2023/10/23 10:51:05;;;;;;;20.52;10.10;;;;;;;21.97;48.74;95212.44;6260460;27;108806;-65
2023/10/23 10:54:08;;;;;;;18.00;9.10;;;;;;;22.03;48.96;95205.91;6259932;27;109518;-64
2023/10/23 10:57:17;;;;;;;15.32;9.80;;;;;;;22.05;48.51;95201.06;6260953;27;110030;-63
2023/10/23 11:00:22;;;;;;;17.17;9.90;;;;;;;22.07;48.78;95199.69;6249514;27;109610;-64
2023/10/23 11:03:27;;;;;;;16.83;9.13;;;;;;;22.01;48.61;95192.91;6260168;27;109231;-64
2023/10/23 11:06:31;;;;;;;16.00;9.10;;;;;;;22.01;48.54;95192.06;6260122;27;109234;-64
2023/10/23 11:09:34;;;;;;;16.70;9.47;;;;;;;22.03;49.12;95189.94;6255484;27;110537;-64
2023/10/23 11:12:38;;;;;;;19.70;10.10;;;;;;;22.08;49.03;95184.47;6254850;27;109153;-64
2023/10/23 11:15:41;;;;;;;20.52;10.00;;;;;;;22.04;49.11;95192.28;6259910;27;108902;-64
2023/10/23 11:18:45;;;;;;;18.95;9.45;;;;;;;22.08;48.57;95184.47;6259564;27;109080;-64
2023/10/23 11:21:48;;;;;;;18.15;9.00;;;;;;;22.11;48.64;95181.97;6249205;27;109214;-64
2023/10/23 11:24:51;;;;;;;18.95;9.80;;;;;;;22.07;48.54;95175.69;6259541;27;109021;-65
2023/10/23 11:27:56;;;;;;;15.10;8.60;;;;;;;22.06;48.04;95174.13;6259411;27;108996;-64
2023/10/23 11:31:00;;;;;;;18.23;8.57;;;;;;;22.02;47.56;95167.81;6259564;27;109005;-64
2023/10/23 11:34:10;;;;;;;17.77;8.40;;;;;;;21.99;47.45;95163.06;6248325;27;109221;-63
2023/10/23 11:37:13;;;;;;;14.73;8.00;;;;;;;21.98;47.06;95161.50;6259473;27;108827;-64
2023/10/23 11:40:20;;;;;;;17.35;7.60;;;;;;;21.98;46.23;95152.72;6259820;27;109255;-64
2023/10/23 11:43:25;;;;;;;16.73;8.07;;;;;;;22.01;46.66;95150.25;6254412;27;109115;-64
2023/10/23 11:46:29;;;;;;;19.13;7.80;;;;;;;22.10;46.85;95150.31;6253782;27;109375;-65
2023/10/23 11:49:32;;;;;;;15.60;7.65;;;;;;;22.17;46.39;95148.00;6258967;27;109081;-63
2023/10/23 11:52:36;;;;;;;15.27;7.15;;;;;;;22.24;45.90;95144.91;6259311;27;109210;-63
2023/10/23 11:55:39;;;;;;;17.02;7.43;;;;;;;22.28;45.88;95140.56;6249342;27;110310;-64
2023/10/23 11:58:47;;;;;;;17.13;7.70;;;;;;;22.25;45.56;95133.16;6259343;27;109035;-64
2023/10/23 12:01:50;;;;;;;16.75;6.90;;;;;;;22.22;45.26;95131.13;6259422;27;109719;-64
2023/10/23 12:04:54;;;;;;;13.27;6.90;;;;;;;22.20;45.78;95133.28;6259322;27;109282;-64
2023/10/23 12:07:58;;;;;;;16.45;7.30;;;;;;;22.26;45.47;95129.41;6248299;27;109335;-69
2023/10/23 12:11:01;;;;;;;14.87;6.50;;;;;;;22.22;45.26;95128.44;6259658;27;110308;-70
2023/10/23 12:14:07;;;;;;;11.43;6.35;;;;;;;22.20;45.79;95130.63;6260119;27;109196;-69
2023/10/23 12:17:10;;;;;;;17.73;7.28;;;;;;;22.19;45.69;95137.06;6262913;27;108868;-69
2023/10/23 12:20:16;;;;;;;16.63;7.18;;;;;;;22.26;45.06;95143.53;6253305;27;109011;-67
2023/10/23 12:23:19;;;;;;;16.65;6.88;;;;;;;22.25;44.74;95141.16;6263245;27;109143;-62
2023/10/23 12:26:22;;;;;;;15.00;6.30;;;;;;;22.23;45.09;95132.69;6263194;27;109270;-62
2023/10/23 12:29:27;;;;;;;13.60;6.22;;;;;;;22.22;45.08;95139.09;6253127;27;110112;-63
2023/10/23 12:32:30;;;;;;;14.63;6.30;;;;;;;22.22;45.10;95136.44;6262869;27;110032;-63
2023/10/23 12:35:53;;;;;;;13.63;7.00;;;;;;;22.21;45.31;95134.88;6263059;27;108676;-62
2023/10/23 12:38:56;;;;;;;15.35;6.63;;;;;;;22.22;45.11;95139.09;6262626;27;109179;-62
2023/10/23 12:41:59;;;;;;;13.55;6.22;;;;;;;22.21;45.12;95132.19;6252483;27;109210;-62
2023/10/23 12:45:05;;;;;;;13.20;6.70;;;;;;;22.23;45.42;95132.69;6263082;27;109159;-61
2023/10/23 12:48:08;;;;;;;12.00;5.87;;;;;;;22.22;44.94;95139.91;6262805;27;109051;-61
2023/10/23 12:51:11;;;;;;;11.50;5.40;;;;;;;22.23;45.25;95135.34;6262538;27;108973;-61
2023/10/23 12:54:14;;;;;;;12.98;6.00;;;;;;;22.23;45.17;95127.34;6251133;27;109135;-62
2023/10/23 12:57:17;;;;;;;11.03;5.80;;;;;;;22.23;45.00;95127.34;6263004;27;109067;-62
2023/10/23 13:00:22;;;;;;;12.23;5.40;;;;;;;22.22;45.17;95123.13;6262979;27;109428;-62
2023/10/23 13:03:26;;;;;;;10.67;5.30;;;;;;;22.21;45.40;95126.88;6253805;27;109202;-65
2023/10/23 13:06:29;;;;;;;11.52;5.45;;;;;;;22.22;45.07;95125.78;6261825;27;109344;-62
2023/10/23 13:09:32;;;;;;;10.90;5.47;;;;;;;22.23;45.28;95125.47;6262275;27;109143;-62
2023/10/23 13:12:35;;;;;;;10.07;5.00;;;;;;;22.24;45.46;95131.59;6262842;27;110129;-62
2023/10/23 13:15:39;;;;;;;10.95;5.60;;;;;;;22.23;45.11;95127.34;6253368;27;110295;-63
2023/10/23 13:18:43;;;;;;;11.83;5.60;;;;;;;22.23;45.11;95127.34;6262005;27;109436;-62
2023/10/23 13:21:55;;;;;;;10.40;5.60;;;;;;;22.23;45.42;95124.69;6262179;27;110360;-62
2023/10/23 13:24:59;;;;;;;9.07;5.00;;;;;;;22.24;45.49;95123.59;6262161;27;109224;-62
2023/10/23 13:28:04;;;;;;;12.45;5.60;;;;;;;22.22;45.19;95120.44;6251488;27;109060;-62
2023/10/23 13:31:09;;;;;;;12.17;5.40;;;;;;;22.22;45.59;95123.13;6262242;27;109201;-62
2023/10/23 13:34:12;;;;;;;10.73;5.78;;;;;;;22.23;45.29;95125.47;6262113;27;109329;-61
2023/10/23 13:37:15;;;;;;;10.87;5.57;;;;;;;22.26;45.10;95116.88;6257464;27;110056;-62
2023/10/23 13:40:18;;;;;;;9.90;5.43;;;;;;;22.24;45.25;95124.38;6256629;27;109155;-62
2023/10/23 13:43:22;;;;;;;9.98;5.13;;;;;;;22.23;44.84;95117.47;6261956;27;109080;-62
2023/10/23 13:46:27;;;;;;;8.30;5.20;;;;;;;22.25;44.89;95125.16;6262038;27;108992;-61
2023/10/23 13:49:30;;;;;;;10.43;5.38;;;;;;;22.23;45.40;95130.81;6251316;27;109129;-61
2023/10/23 13:52:33;;;;;;;10.90;5.10;;;;;;;22.24;45.39;95120.94;6261450;27;108993;-61
2023/10/23 13:55:36;;;;;;;10.88;5.10;;;;;;;22.23;44.88;95120.16;6261423;27;109656;-62
2023/10/23 13:58:40;;;;;;;10.88;5.05;;;;;;;22.23;44.82;95124.69;6261639;27;109313;-62
2023/10/23 14:01:45;;;;;;;12.55;5.22;;;;;;;22.24;45.08;95120.94;6251593;27;110577;-62
2023/10/23 14:04:49;;;;;;;11.27;5.10;;;;;;;22.25;45.13;95133.16;6261675;27;109450;-62
2023/10/23 14:07:52;;;;;;;11.88;5.00;;;;;;;22.23;45.12;95124.69;6261232;27;109068;-62